• Join FlightAware (Why Join?)
  • Login
  • US Flag 
06:29AM EDT


 

Airport Tracker/Info


-or-


 

Live Flight TrackerFlight Track Log ✈ SKW5564 ✈ 09-Jul-2013 ✈ KSFO - KSLC

Flight Track Log - Related Links

Times and Time Zones

All times are in EDT time to prevent confusion due to time zone crossing. See the SKW5564 flight status page for this flight to view local times or setup timezone preferences in your user account.

Time Position Orientation Groundspeed Altitude Reporting Facility
EDT Latitude Longitude Course Direction KTS MPH feet Rate Location/Type
01:01PM 37.6333 -122.3500 50° Northeast 159 183 1,100  Level Northern Cal TRACON
01:02PM 37.6667 -122.3000 50° Northeast 241 277 2,900 2,220 Climbing Northern Cal TRACON
01:03PM 37.7333 -122.2333 38° Northeast 282 325 5,400 2,820 Climbing Northern Cal TRACON
01:04PM 37.7833 -122.1500 53° Northeast 303 349 8,900 3,180 Climbing Northern Cal TRACON
01:05PM 37.8500 -122.0667 45° Northeast 308 354 12,200 3,000 Climbing Northern Cal TRACON
01:06PM 37.8928 -122.0067 48° Northeast 311 358 14,200 2,280 Climbing Oakland Center
01:07PM 37.9547 -121.9222 47° Northeast 329 379 16,300 2,040 Climbing Oakland Center
01:08PM 38.0192 -121.8317 48° Northeast 344 396 18,400 1,260 Climbing Oakland Center
01:09PM 38.0919 -121.7311 47° Northeast 389 448 19,000 300 Climbing Oakland Center
01:10PM 38.1736 -121.6172 48° Northeast 435 501 19,100 780 Climbing Oakland Center
01:11PM 38.2567 -121.5000 48° Northeast 445 512 20,700 1,920 Climbing Oakland Center
01:12PM 38.3528 -121.3644 48° Northeast 444 511 23,100 2,160 Climbing Oakland Center
01:13PM 38.4261 -121.2442 52° Northeast 437 503 25,100 1,860 Climbing Oakland Center
01:14PM 38.4986 -121.1228 53° Northeast 442 509 27,000 1,680 Climbing Oakland Center
01:15PM 38.5739 -121.0028 51° Northeast 442 509 28,600 1,500 Climbing Oakland Center
01:16PM 38.6258 -120.8614 65° Northeast 439 505 30,100 1,440 Climbing Oakland Center
01:17PM 38.6756 -120.7142 67° East 448 516 31,600 1,260 Climbing Oakland Center
01:18PM 38.7383 -120.5347 66° East 459 528 32,800 1,080 Climbing Oakland Center
01:19PM 38.8089 -120.3897 58° Northeast 474 545 33,900 960 Climbing Oakland Center
01:20PM 38.8783 -120.2419 59° Northeast 482 555 34,800 960 Climbing Oakland Center
01:21PM 38.9486 -120.0897 59° Northeast 493 567 35,900 1,020 Climbing Oakland Center
01:22PM 39.0175 -119.9417 59° Northeast 495 570 36,900 960 Climbing Oakland Center
01:23PM 39.0883 -119.7894 59° Northeast 496 571 37,900 960 Climbing Oakland Center
01:24PM 39.1594 -119.6392 59° Northeast 491 565 38,900 480 Climbing Oakland Center
01:25PM 39.2275 -119.4858 60° Northeast 493 567 39,000  Climbing Oakland Center
01:26PM 39.3136 -119.2978 59° Northeast 504 580 39,000  Level Oakland Center
01:27PM 39.3867 -119.1369 60° Northeast 514 592 39,000  Level Oakland Center
01:28PM 39.4569 -118.9803 60° Northeast 517 595 39,000  Level Oakland Center
01:29PM 39.5356 -118.8100 59° Northeast 521 600 39,000  Level Oakland Center
01:30PM 39.6089 -118.6428 60° Northeast 523 602 39,000  Level Oakland Center
01:31PM 39.6811 -118.4783 60° Northeast 518 596 39,000  Level Oakland Center
01:32PM 39.7514 -118.3153 61° Northeast 517 595 39,000  Level Oakland Center
01:33PM 39.8236 -118.1536 60° Northeast 516 594 39,000  Level Oakland Center
01:34PM 39.8931 -117.9908 61° Northeast 515 593 39,000  Level Oakland Center
01:35PM 39.9639 -117.8281 60° Northeast 515 593 39,000  Level Oakland Center
01:36PM 40.0342 -117.6667 60° Northeast 513 590 39,000  Level Oakland Center
01:37PM 40.1031 -117.5033 61° Northeast 513 590 39,000  Level Oakland Center
01:38PM 40.1861 -117.3111 60° Northeast 513 590 39,000  Level Oakland Center
01:40PM 40.2522 -117.1544 61° Northeast 515 593 39,000  Level Oakland Center
01:41PM 40.3172 -116.9989 61° Northeast 511 588 39,000  Level Oakland Center
01:42PM 40.3900 -116.8286 61° Northeast 517 595 39,000  Level Oakland Center
01:43PM 40.4592 -116.6611 61° Northeast 521 600 39,000  Level Oakland Center
01:44PM 40.5344 -116.4781 62° Northeast 521 600 39,000  Level Oakland Center
01:45PM 40.5778 -116.2414 76° East 520 598 39,000  Level Salt Lake Center
01:46PM 40.5892 -116.0606 85° East 520 598 39,000  Level Salt Lake Center
01:47PM 40.6039 -115.8489 85° East 519 597 39,000  Level Salt Lake Center
01:49PM 40.6306 -115.4564 85° East 519 597 39,000  Level Salt Lake Center
01:50PM 40.6400 -115.2731 86° East 524 603 39,000  Level Salt Lake Center
01:51PM 40.6553 -115.0619 84° East 519 597 39,000  Level Salt Lake Center
01:52PM 40.6689 -114.8808 84° East 519 597 39,000  Level Salt Lake Center
01:53PM 40.6811 -114.6814 85° East 522 601 39,000  Level Salt Lake Center
01:54PM 40.6928 -114.4922 85° East 521 600 39,000 -420 Level Salt Lake Center
01:55PM 40.7000 -114.3003 87° East 524 603 38,200 -1,920 Descending Salt Lake Center
01:56PM 40.7086 -114.1119 86° East 519 597 35,100 -3,300 Descending Salt Lake Center
01:57PM 40.7203 -113.8883 86° East 512 589 31,500 -3,240 Descending Salt Lake Center
01:58PM 40.7281 -113.7017 87° East 512 589 28,500 -2,940 Descending Salt Lake Center
01:59PM 40.7264 -113.5219 91° East 495 570 25,500 -3,000 Descending Salt Lake Center
02:00PM 40.7261 -113.3536 90° East 469 540 22,400 -3,000 Descending Salt Lake Center
02:01PM 40.7261 -113.1928 90° East 445 512 19,400 -2,580 Descending Salt Lake Center
02:02PM 40.7247 -113.0431 91° East 413 475 17,100 -1,200 Descending Salt Lake Center
02:03PM 40.7236 -112.8922 91° East 330 380 17,000 -60 Descending Salt Lake Center
02:05PM 40.7228 -112.7747 90° East 323 372 17,000 -360 Level Salt Lake Center
02:05PM 40.7242 -112.6886 89° East 326 375 16,400 -1,020 Descending Salt Lake Center
02:06PM 40.7228 -112.5678 91° East 319 367 15,300 -1,200 Descending Salt Lake Center
02:07PM 40.7356 -112.4561 81° East 318 366 14,000 -1,320 Descending Salt Lake Center
02:08PM 40.7525 -112.3431 79° East 317 365 12,700 -1,020 Descending Salt Lake Center
02:09PM 40.7658 -112.2225 82° East 314 361 12,000 -780 Descending Salt Lake Center
02:10PM 40.7442 -112.1222 106° East 284 327 11,200 -960 Descending Salt Lake Center
02:11PM 40.6792 -112.0875 158° South 253 291 10,100 -1,080 Descending Salt Lake Center
02:12PM 40.6169 -112.0775 173° South 243 280 9,200 -1,020 Descending Salt Lake Center
02:13PM 40.6036 -112.0469 120° Southeast 224 258 8,600 -1,140 Descending Salt Lake Center
02:14PM 40.6344 -111.9936 53° Northeast 183 211 7,400 -1,200 Descending Salt Lake Center